sensor_id;sensor_type;location;lat;lon;timestamp;temperature;humidity
13848;DHT22;6994;49.752;6.094;2023-07-29T00:02:04;20.70;99.90
13848;DHT22;6994;49.752;6.094;2023-07-29T00:04:31;20.70;99.90
13848;DHT22;6994;49.752;6.094;2023-07-29T00:06:59;20.60;99.90
13848;DHT22;6994;49.752;6.094;2023-07-29T00:09:27;20.60;99.90
13848;DHT22;6994;49.752;6.094;2023-07-29T00:11:55;20.60;99.90
13848;DHT22;6994;49.752;6.094;2023-07-29T00:14:22;20.60;99.90
13848;DHT22;6994;49.752;6.094;2023-07-29T00:16:49;20.60;99.90
13848;DHT22;6994;49.752;6.094;2023-07-29T00:19:17;20.60;99.90
13848;DHT22;6994;49.752;6.094;2023-07-29T00:21:44;20.60;99.90
13848;DHT22;6994;49.752;6.094;2023-07-29T00:24:11;20.60;99.90
13848;DHT22;6994;49.752;6.094;2023-07-29T00:26:38;20.50;99.90
13848;DHT22;6994;49.752;6.094;2023-07-29T00:29:05;20.50;99.90
13848;DHT22;6994;49.752;6.094;2023-07-29T00:31:33;20.50;99.90
13848;DHT22;6994;49.752;6.094;2023-07-29T00:34:01;20.50;99.90
13848;DHT22;6994;49.752;6.094;2023-07-29T00:36:28;20.50;99.90
13848;DHT22;6994;49.752;6.094;2023-07-29T00:38:56;20.50;99.90
13848;DHT22;6994;49.752;6.094;2023-07-29T00:41:23;20.50;99.90
13848;DHT22;6994;49.752;6.094;2023-07-29T00:43:50;20.50;99.90
13848;DHT22;6994;49.752;6.094;2023-07-29T00:46:17;20.50;99.90
13848;DHT22;6994;49.752;6.094;2023-07-29T00:48:45;20.50;99.90
13848;DHT22;6994;49.752;6.094;2023-07-29T00:51:12;20.60;99.90
13848;DHT22;6994;49.752;6.094;2023-07-29T00:53:39;20.80;99.90
13848;DHT22;6994;49.752;6.094;2023-07-29T00:56:06;20.90;99.90
13848;DHT22;6994;49.752;6.094;2023-07-29T00:58:33;20.90;99.90
13848;DHT22;6994;49.752;6.094;2023-07-29T01:01:01;20.80;99.90
13848;DHT22;6994;49.752;6.094;2023-07-29T01:03:29;20.70;99.90
13848;DHT22;6994;49.752;6.094;2023-07-29T01:06:05;20.70;99.90
13848;DHT22;6994;49.752;6.094;2023-07-29T01:08:42;20.70;99.90
13848;DHT22;6994;49.752;6.094;2023-07-29T01:13:50;20.60;99.90
13848;DHT22;6994;49.752;6.094;2023-07-29T01:16:21;20.70;99.90
13848;DHT22;6994;49.752;6.094;2023-07-29T01:18:42;20.70;99.90
13848;DHT22;6994;49.752;6.094;2023-07-29T01:21:10;20.60;99.90
13848;DHT22;6994;49.752;6.094;2023-07-29T01:23:37;20.60;99.90
13848;DHT22;6994;49.752;6.094;2023-07-29T01:26:04;20.60;99.90
13848;DHT22;6994;49.752;6.094;2023-07-29T01:28:31;20.60;99.90
13848;DHT22;6994;49.752;6.094;2023-07-29T01:31:03;20.60;99.90
13848;DHT22;6994;49.752;6.094;2023-07-29T01:33:30;20.60;99.90
13848;DHT22;6994;49.752;6.094;2023-07-29T01:36:02;20.60;99.90
13848;DHT22;6994;49.752;6.094;2023-07-29T01:38:38;20.60;99.90
13848;DHT22;6994;49.752;6.094;2023-07-29T01:41:06;20.60;99.90
13848;DHT22;6994;49.752;6.094;2023-07-29T01:43:33;20.60;99.90
13848;DHT22;6994;49.752;6.094;2023-07-29T01:46:01;20.50;99.90
13848;DHT22;6994;49.752;6.094;2023-07-29T01:48:29;20.50;99.90
13848;DHT22;6994;49.752;6.094;2023-07-29T01:50:57;20.50;99.90
13848;DHT22;6994;49.752;6.094;2023-07-29T01:53:24;20.50;99.90
13848;DHT22;6994;49.752;6.094;2023-07-29T01:55:52;20.40;99.90
13848;DHT22;6994;49.752;6.094;2023-07-29T01:58:20;20.40;99.90
13848;DHT22;6994;49.752;6.094;2023-07-29T02:00:47;20.40;99.90
13848;DHT22;6994;49.752;6.094;2023-07-29T02:03:14;20.40;99.90
13848;DHT22;6994;49.752;6.094;2023-07-29T02:05:41;20.40;99.90
13848;DHT22;6994;49.752;6.094;2023-07-29T02:08:09;20.60;99.90
13848;DHT22;6994;49.752;6.094;2023-07-29T02:10:36;20.60;99.90
13848;DHT22;6994;49.752;6.094;2023-07-29T02:13:03;20.70;99.90
13848;DHT22;6994;49.752;6.094;2023-07-29T02:15:30;20.60;99.90
13848;DHT22;6994;49.752;6.094;2023-07-29T02:17:58;20.60;99.90
13848;DHT22;6994;49.752;6.094;2023-07-29T02:20:25;20.60;99.90
13848;DHT22;6994;49.752;6.094;2023-07-29T02:22:52;20.60;99.90
13848;DHT22;6994;49.752;6.094;2023-07-29T02:25:20;20.60;99.90
13848;DHT22;6994;49.752;6.094;2023-07-29T02:27:48;20.60;99.90
13848;DHT22;6994;49.752;6.094;2023-07-29T02:30:16;20.60;99.90
13848;DHT22;6994;49.752;6.094;2023-07-29T02:32:43;20.60;99.90
13848;DHT22;6994;49.752;6.094;2023-07-29T02:35:10;20.60;99.90
13848;DHT22;6994;49.752;6.094;2023-07-29T02:37:37;20.70;99.90
13848;DHT22;6994;49.752;6.094;2023-07-29T02:40:05;20.80;99.90
13848;DHT22;6994;49.752;6.094;2023-07-29T02:42:32;20.80;99.90
13848;DHT22;6994;49.752;6.094;2023-07-29T02:45:00;20.70;99.90
13848;DHT22;6994;49.752;6.094;2023-07-29T02:47:27;20.60;99.90
13848;DHT22;6994;49.752;6.094;2023-07-29T02:49:54;20.60;99.90
13848;DHT22;6994;49.752;6.094;2023-07-29T02:52:21;20.50;99.90
13848;DHT22;6994;49.752;6.094;2023-07-29T02:54:49;20.50;99.90
13848;DHT22;6994;49.752;6.094;2023-07-29T02:57:16;20.40;99.90
13848;DHT22;6994;49.752;6.094;2023-07-29T02:59:43;20.50;99.90
13848;DHT22;6994;49.752;6.094;2023-07-29T03:02:10;20.50;99.90
13848;DHT22;6994;49.752;6.094;2023-07-29T03:04:37;20.40;99.90
13848;DHT22;6994;49.752;6.094;2023-07-29T03:07:05;20.30;99.90
13848;DHT22;6994;49.752;6.094;2023-07-29T03:09:32;20.20;99.90
13848;DHT22;6994;49.752;6.094;2023-07-29T03:11:59;20.10;99.90
13848;DHT22;6994;49.752;6.094;2023-07-29T03:14:26;20.00;99.90
13848;DHT22;6994;49.752;6.094;2023-07-29T03:16:53;19.90;99.90
13848;DHT22;6994;49.752;6.094;2023-07-29T03:19:21;19.80;99.90
13848;DHT22;6994;49.752;6.094;2023-07-29T03:21:49;19.80;99.90
13848;DHT22;6994;49.752;6.094;2023-07-29T03:24:16;19.80;99.90
13848;DHT22;6994;49.752;6.094;2023-07-29T03:26:43;19.90;99.90
13848;DHT22;6994;49.752;6.094;2023-07-29T03:29:10;19.90;99.90
13848;DHT22;6994;49.752;6.094;2023-07-29T03:31:37;19.90;99.90
13848;DHT22;6994;49.752;6.094;2023-07-29T03:34:05;20.00;99.90
13848;DHT22;6994;49.752;6.094;2023-07-29T03:36:32;19.90;99.90
13848;DHT22;6994;49.752;6.094;2023-07-29T03:38:59;19.80;99.90
13848;DHT22;6994;49.752;6.094;2023-07-29T03:41:26;19.70;99.90
13848;DHT22;6994;49.752;6.094;2023-07-29T03:43:54;19.50;99.90
13848;DHT22;6994;49.752;6.094;2023-07-29T03:46:22;19.50;99.90
13848;DHT22;6994;49.752;6.094;2023-07-29T03:48:50;19.40;99.90
13848;DHT22;6994;49.752;6.094;2023-07-29T03:51:17;19.40;99.90
13848;DHT22;6994;49.752;6.094;2023-07-29T03:53:44;19.30;99.90
13848;DHT22;6994;49.752;6.094;2023-07-29T03:56:12;19.30;99.90
13848;DHT22;6994;49.752;6.094;2023-07-29T03:58:39;19.30;99.90
13848;DHT22;6994;49.752;6.094;2023-07-29T04:01:06;19.20;99.90
13848;DHT22;6994;49.752;6.094;2023-07-29T04:03:33;19.20;99.90
13848;DHT22;6994;49.752;6.094;2023-07-29T04:06:01;19.20;99.90
13848;DHT22;6994;49.752;6.094;2023-07-29T04:08:28;19.10;99.90
13848;DHT22;6994;49.752;6.094;2023-07-29T04:10:55;19.10;99.90
13848;DHT22;6994;49.752;6.094;2023-07-29T04:13:22;19.10;99.90
13848;DHT22;6994;49.752;6.094;2023-07-29T04:15:49;19.00;99.90
13848;DHT22;6994;49.752;6.094;2023-07-29T04:18:17;18.90;99.90
13848;DHT22;6994;49.752;6.094;2023-07-29T04:20:45;18.80;99.90
13848;DHT22;6994;49.752;6.094;2023-07-29T04:23:13;18.70;99.90
13848;DHT22;6994;49.752;6.094;2023-07-29T04:25:40;18.70;99.90
13848;DHT22;6994;49.752;6.094;2023-07-29T04:28:08;18.60;99.90
13848;DHT22;6994;49.752;6.094;2023-07-29T04:30:35;18.50;99.90
13848;DHT22;6994;49.752;6.094;2023-07-29T04:33:02;18.70;99.90
13848;DHT22;6994;49.752;6.094;2023-07-29T04:35:29;18.70;99.90
13848;DHT22;6994;49.752;6.094;2023-07-29T04:37:56;18.60;99.90
13848;DHT22;6994;49.752;6.094;2023-07-29T04:40:24;18.50;99.90
13848;DHT22;6994;49.752;6.094;2023-07-29T04:42:51;18.40;99.90
13848;DHT22;6994;49.752;6.094;2023-07-29T04:45:18;18.40;99.90
13848;DHT22;6994;49.752;6.094;2023-07-29T04:47:45;18.30;99.90
13848;DHT22;6994;49.752;6.094;2023-07-29T04:50:13;18.30;99.90
13848;DHT22;6994;49.752;6.094;2023-07-29T04:52:40;18.20;99.90
13848;DHT22;6994;49.752;6.094;2023-07-29T04:55:08;18.30;99.90
13848;DHT22;6994;49.752;6.094;2023-07-29T04:57:36;18.20;99.90
13848;DHT22;6994;49.752;6.094;2023-07-29T05:00:04;18.20;99.90
13848;DHT22;6994;49.752;6.094;2023-07-29T05:02:32;18.20;99.90
13848;DHT22;6994;49.752;6.094;2023-07-29T05:04:59;18.20;99.90
13848;DHT22;6994;49.752;6.094;2023-07-29T05:07:26;18.20;99.90
13848;DHT22;6994;49.752;6.094;2023-07-29T05:09:53;18.20;99.90
13848;DHT22;6994;49.752;6.094;2023-07-29T05:12:20;18.20;99.90
13848;DHT22;6994;49.752;6.094;2023-07-29T05:14:48;18.20;99.90
13848;DHT22;6994;49.752;6.094;2023-07-29T05:17:15;18.40;99.90
13848;DHT22;6994;49.752;6.094;2023-07-29T05:19:42;18.40;99.90
13848;DHT22;6994;49.752;6.094;2023-07-29T05:22:09;18.50;99.90
13848;DHT22;6994;49.752;6.094;2023-07-29T05:24:36;18.50;99.90
13848;DHT22;6994;49.752;6.094;2023-07-29T05:27:04;18.50;99.90
13848;DHT22;6994;49.752;6.094;2023-07-29T05:29:31;18.50;99.90
13848;DHT22;6994;49.752;6.094;2023-07-29T05:31:59;18.50;99.90
13848;DHT22;6994;49.752;6.094;2023-07-29T05:34:26;18.50;99.90
13848;DHT22;6994;49.752;6.094;2023-07-29T05:36:53;18.50;99.90
13848;DHT22;6994;49.752;6.094;2023-07-29T05:39:20;18.50;99.90
13848;DHT22;6994;49.752;6.094;2023-07-29T05:41:48;18.70;99.90
13848;DHT22;6994;49.752;6.094;2023-07-29T05:44:15;18.80;99.90
13848;DHT22;6994;49.752;6.094;2023-07-29T05:46:42;18.70;99.90
13848;DHT22;6994;49.752;6.094;2023-07-29T05:49:09;18.70;99.90
13848;DHT22;6994;49.752;6.094;2023-07-29T05:51:37;19.00;99.90
13848;DHT22;6994;49.752;6.094;2023-07-29T05:54:04;19.00;99.90
13848;DHT22;6994;49.752;6.094;2023-07-29T05:56:31;19.00;99.90
13848;DHT22;6994;49.752;6.094;2023-07-29T05:58:58;19.20;99.90
13848;DHT22;6994;49.752;6.094;2023-07-29T06:01:26;19.20;99.90
13848;DHT22;6994;49.752;6.094;2023-07-29T06:03:54;19.10;99.90
13848;DHT22;6994;49.752;6.094;2023-07-29T06:06:21;19.10;99.90
13848;DHT22;6994;49.752;6.094;2023-07-29T06:08:49;19.10;99.90
13848;DHT22;6994;49.752;6.094;2023-07-29T06:11:16;18.90;99.90
13848;DHT22;6994;49.752;6.094;2023-07-29T06:13:43;19.00;99.90
13848;DHT22;6994;49.752;6.094;2023-07-29T06:16:10;19.00;99.90
13848;DHT22;6994;49.752;6.094;2023-07-29T06:18:37;19.20;99.90
13848;DHT22;6994;49.752;6.094;2023-07-29T06:21:04;19.10;99.90
13848;DHT22;6994;49.752;6.094;2023-07-29T06:23:32;19.10;99.90
13848;DHT22;6994;49.752;6.094;2023-07-29T06:25:59;19.00;99.90
13848;DHT22;6994;49.752;6.094;2023-07-29T06:28:26;19.00;99.90
13848;DHT22;6994;49.752;6.094;2023-07-29T06:30:53;18.90;99.90
13848;DHT22;6994;49.752;6.094;2023-07-29T06:33:21;18.90;99.90
13848;DHT22;6994;49.752;6.094;2023-07-29T06:35:49;18.90;99.90
13848;DHT22;6994;49.752;6.094;2023-07-29T06:38:17;18.90;99.90
13848;DHT22;6994;49.752;6.094;2023-07-29T06:40:45;18.90;99.90
13848;DHT22;6994;49.752;6.094;2023-07-29T06:43:13;18.90;99.90
13848;DHT22;6994;49.752;6.094;2023-07-29T06:45:40;18.80;99.90
13848;DHT22;6994;49.752;6.094;2023-07-29T06:48:08;18.80;99.90
13848;DHT22;6994;49.752;6.094;2023-07-29T06:50:35;18.80;99.90
13848;DHT22;6994;49.752;6.094;2023-07-29T06:53:02;19.10;99.90
13848;DHT22;6994;49.752;6.094;2023-07-29T06:55:29;19.20;99.90
13848;DHT22;6994;49.752;6.094;2023-07-29T06:57:56;19.40;99.90
13848;DHT22;6994;49.752;6.094;2023-07-29T07:00:24;19.50;99.90
13848;DHT22;6994;49.752;6.094;2023-07-29T07:02:51;19.40;99.90
13848;DHT22;6994;49.752;6.094;2023-07-29T07:05:18;19.40;99.90
13848;DHT22;6994;49.752;6.094;2023-07-29T07:07:46;19.40;99.90
13848;DHT22;6994;49.752;6.094;2023-07-29T07:10:14;19.40;99.90
13848;DHT22;6994;49.752;6.094;2023-07-29T07:12:40;19.40;99.90
13848;DHT22;6994;49.752;6.094;2023-07-29T07:15:08;19.60;99.90
13848;DHT22;6994;49.752;6.094;2023-07-29T07:17:36;19.60;99.90
13848;DHT22;6994;49.752;6.094;2023-07-29T07:20:04;19.70;99.90
13848;DHT22;6994;49.752;6.094;2023-07-29T07:22:31;19.70;99.90
13848;DHT22;6994;49.752;6.094;2023-07-29T07:24:59;19.60;99.90
13848;DHT22;6994;49.752;6.094;2023-07-29T07:27:27;19.50;99.90
13848;DHT22;6994;49.752;6.094;2023-07-29T07:29:54;19.50;99.90
13848;DHT22;6994;49.752;6.094;2023-07-29T07:32:21;19.40;99.90
13848;DHT22;6994;49.752;6.094;2023-07-29T07:34:48;19.40;99.90
13848;DHT22;6994;49.752;6.094;2023-07-29T07:37:16;19.50;99.90
13848;DHT22;6994;49.752;6.094;2023-07-29T07:39:43;19.60;99.90
13848;DHT22;6994;49.752;6.094;2023-07-29T07:42:10;19.80;99.90
13848;DHT22;6994;49.752;6.094;2023-07-29T07:44:37;19.80;99.90
13848;DHT22;6994;49.752;6.094;2023-07-29T07:47:04;19.80;99.90
13848;DHT22;6994;49.752;6.094;2023-07-29T07:49:32;19.90;99.90
13848;DHT22;6994;49.752;6.094;2023-07-29T07:51:59;20.00;99.90
13848;DHT22;6994;49.752;6.094;2023-07-29T07:54:26;19.90;99.90
13848;DHT22;6994;49.752;6.094;2023-07-29T07:56:53;19.80;99.90
13848;DHT22;6994;49.752;6.094;2023-07-29T07:59:20;20.00;99.90
13848;DHT22;6994;49.752;6.094;2023-07-29T08:01:48;20.00;99.90
13848;DHT22;6994;49.752;6.094;2023-07-29T08:04:16;20.00;99.90
13848;DHT22;6994;49.752;6.094;2023-07-29T08:06:43;19.90;99.90
13848;DHT22;6994;49.752;6.094;2023-07-29T08:09:10;19.90;99.90
13848;DHT22;6994;49.752;6.094;2023-07-29T08:11:37;20.00;99.90
13848;DHT22;6994;49.752;6.094;2023-07-29T08:14:04;20.00;99.90
13848;DHT22;6994;49.752;6.094;2023-07-29T08:16:32;20.00;99.90
13848;DHT22;6994;49.752;6.094;2023-07-29T08:18:59;20.00;99.90
13848;DHT22;6994;49.752;6.094;2023-07-29T08:21:26;20.00;99.90
13848;DHT22;6994;49.752;6.094;2023-07-29T08:23:53;20.00;99.90
13848;DHT22;6994;49.752;6.094;2023-07-29T08:26:20;20.00;99.90
13848;DHT22;6994;49.752;6.094;2023-07-29T08:28:48;20.00;99.90
13848;DHT22;6994;49.752;6.094;2023-07-29T08:31:15;20.00;99.90
13848;DHT22;6994;49.752;6.094;2023-07-29T08:33:42;20.00;99.90
13848;DHT22;6994;49.752;6.094;2023-07-29T08:36:10;20.40;99.90
13848;DHT22;6994;49.752;6.094;2023-07-29T08:38:37;20.30;99.90
13848;DHT22;6994;49.752;6.094;2023-07-29T08:41:14;20.60;99.90
13848;DHT22;6994;49.752;6.094;2023-07-29T08:43:47;20.80;99.90
13848;DHT22;6994;49.752;6.094;2023-07-29T08:46:08;21.00;99.90
13848;DHT22;6994;49.752;6.094;2023-07-29T08:48:41;21.20;99.90
13848;DHT22;6994;49.752;6.094;2023-07-29T08:51:11;21.40;99.90
13848;DHT22;6994;49.752;6.094;2023-07-29T08:53:38;21.50;99.90
13848;DHT22;6994;49.752;6.094;2023-07-29T08:56:06;21.70;99.90
13848;DHT22;6994;49.752;6.094;2023-07-29T08:58:33;21.90;99.90
13848;DHT22;6994;49.752;6.094;2023-07-29T09:01:01;22.00;99.90
13848;DHT22;6994;49.752;6.094;2023-07-29T09:03:29;22.10;99.90
13848;DHT22;6994;49.752;6.094;2023-07-29T09:05:56;22.10;99.90
13848;DHT22;6994;49.752;6.094;2023-07-29T09:08:23;22.10;99.90
13848;DHT22;6994;49.752;6.094;2023-07-29T09:10:51;22.20;99.90
13848;DHT22;6994;49.752;6.094;2023-07-29T09:13:19;22.20;99.90
13848;DHT22;6994;49.752;6.094;2023-07-29T09:15:45;22.20;99.90
13848;DHT22;6994;49.752;6.094;2023-07-29T09:18:16;22.30;99.90
13848;DHT22;6994;49.752;6.094;2023-07-29T09:20:42;22.50;99.90
13848;DHT22;6994;49.752;6.094;2023-07-29T09:23:10;22.50;99.90
13848;DHT22;6994;49.752;6.094;2023-07-29T09:25:37;22.50;99.90
13848;DHT22;6994;49.752;6.094;2023-07-29T09:28:11;22.50;99.90
13848;DHT22;6994;49.752;6.094;2023-07-29T09:30:41;22.50;99.90
13848;DHT22;6994;49.752;6.094;2023-07-29T09:33:04;22.60;99.90
13848;DHT22;6994;49.752;6.094;2023-07-29T09:35:32;22.60;99.90
13848;DHT22;6994;49.752;6.094;2023-07-29T09:37:59;22.80;99.90
13848;DHT22;6994;49.752;6.094;2023-07-29T09:40:26;22.90;99.90
13848;DHT22;6994;49.752;6.094;2023-07-29T09:42:54;22.80;99.90
13848;DHT22;6994;49.752;6.094;2023-07-29T09:45:23;22.80;99.90
13848;DHT22;6994;49.752;6.094;2023-07-29T09:47:50;22.90;99.90
13848;DHT22;6994;49.752;6.094;2023-07-29T09:50:18;23.00;99.90
13848;DHT22;6994;49.752;6.094;2023-07-29T09:52:46;23.20;99.90
13848;DHT22;6994;49.752;6.094;2023-07-29T09:55:13;23.10;99.90
13848;DHT22;6994;49.752;6.094;2023-07-29T09:57:40;23.40;99.90
13848;DHT22;6994;49.752;6.094;2023-07-29T10:00:10;23.40;99.90
13848;DHT22;6994;49.752;6.094;2023-07-29T10:02:35;23.50;99.90
13848;DHT22;6994;49.752;6.094;2023-07-29T10:05:02;23.50;99.90
13848;DHT22;6994;49.752;6.094;2023-07-29T10:07:29;23.70;99.90
13848;DHT22;6994;49.752;6.094;2023-07-29T10:09:56;23.80;99.90
13848;DHT22;6994;49.752;6.094;2023-07-29T10:12:24;24.20;99.90
13848;DHT22;6994;49.752;6.094;2023-07-29T10:14:51;24.40;99.90
13848;DHT22;6994;49.752;6.094;2023-07-29T10:17:18;24.50;99.90
13848;DHT22;6994;49.752;6.094;2023-07-29T10:19:45;24.50;99.90
13848;DHT22;6994;49.752;6.094;2023-07-29T10:22:13;24.50;99.90
13848;DHT22;6994;49.752;6.094;2023-07-29T10:24:41;24.40;99.90
13848;DHT22;6994;49.752;6.094;2023-07-29T10:27:09;24.40;99.90
13848;DHT22;6994;49.752;6.094;2023-07-29T10:29:38;24.40;99.90
13848;DHT22;6994;49.752;6.094;2023-07-29T10:32:05;24.40;99.90
13848;DHT22;6994;49.752;6.094;2023-07-29T10:34:32;24.30;99.90
13848;DHT22;6994;49.752;6.094;2023-07-29T10:37:00;24.30;99.90
13848;DHT22;6994;49.752;6.094;2023-07-29T10:39:30;24.30;99.90
13848;DHT22;6994;49.752;6.094;2023-07-29T10:42:04;24.30;99.90
13848;DHT22;6994;49.752;6.094;2023-07-29T10:47:13;24.40;99.90
13848;DHT22;6994;49.752;6.094;2023-07-29T10:49:43;24.40;99.90
13848;DHT22;6994;49.752;6.094;2023-07-29T10:52:07;24.40;99.90
13848;DHT22;6994;49.752;6.094;2023-07-29T10:54:47;24.30;99.90
13848;DHT22;6994;49.752;6.094;2023-07-29T10:58:03;24.30;99.90
13848;DHT22;6994;49.752;6.094;2023-07-29T10:59:41;24.40;99.90
13848;DHT22;6994;49.752;6.094;2023-07-29T11:02:17;24.60;99.90
13848;DHT22;6994;49.752;6.094;2023-07-29T11:04:49;25.00;99.90
13848;DHT22;6994;49.752;6.094;2023-07-29T11:17:41;25.20;99.90
13848;DHT22;6994;49.752;6.094;2023-07-29T11:20:07;25.40;99.90
13848;DHT22;6994;49.752;6.094;2023-07-29T11:22:34;25.60;99.90
13848;DHT22;6994;49.752;6.094;2023-07-29T11:25:01;26.10;99.90
13848;DHT22;6994;49.752;6.094;2023-07-29T11:27:29;26.00;99.90
13848;DHT22;6994;49.752;6.094;2023-07-29T11:29:59;25.90;99.90
13848;DHT22;6994;49.752;6.094;2023-07-29T11:32:26;25.90;99.90
13848;DHT22;6994;49.752;6.094;2023-07-29T11:34:53;26.10;99.90
13848;DHT22;6994;49.752;6.094;2023-07-29T11:37:20;26.50;99.90
13848;DHT22;6994;49.752;6.094;2023-07-29T11:39:48;27.70;99.90
13848;DHT22;6994;49.752;6.094;2023-07-29T11:42:16;28.40;99.90
13848;DHT22;6994;49.752;6.094;2023-07-29T11:44:43;28.30;99.90
13848;DHT22;6994;49.752;6.094;2023-07-29T11:47:11;29.00;99.90
13848;DHT22;6994;49.752;6.094;2023-07-29T11:49:40;29.50;99.50
13848;DHT22;6994;49.752;6.094;2023-07-29T11:52:08;30.50;98.30
13848;DHT22;6994;49.752;6.094;2023-07-29T11:54:35;30.80;97.40
13848;DHT22;6994;49.752;6.094;2023-07-29T11:57:09;31.90;95.30
13848;DHT22;6994;49.752;6.094;2023-07-29T11:59:36;31.90;95.30
13848;DHT22;6994;49.752;6.094;2023-07-29T12:02:10;31.90;95.10
13848;DHT22;6994;49.752;6.094;2023-07-29T12:04:33;32.10;94.10
13848;DHT22;6994;49.752;6.094;2023-07-29T12:07:00;32.40;93.30
13848;DHT22;6994;49.752;6.094;2023-07-29T12:09:27;32.70;92.80
13848;DHT22;6994;49.752;6.094;2023-07-29T12:11:54;33.00;93.10
13848;DHT22;6994;49.752;6.094;2023-07-29T12:14:22;33.30;91.80
13848;DHT22;6994;49.752;6.094;2023-07-29T12:16:49;33.30;91.50
13848;DHT22;6994;49.752;6.094;2023-07-29T12:19:16;33.60;88.20
13848;DHT22;6994;49.752;6.094;2023-07-29T12:21:43;32.80;88.20
13848;DHT22;6994;49.752;6.094;2023-07-29T12:24:14;31.00;91.90
13848;DHT22;6994;49.752;6.094;2023-07-29T12:26:41;31.00;91.80
13848;DHT22;6994;49.752;6.094;2023-07-29T12:29:15;30.70;92.90
13848;DHT22;6994;49.752;6.094;2023-07-29T12:31:42;30.50;92.70
13848;DHT22;6994;49.752;6.094;2023-07-29T12:34:08;30.00;92.70
13848;DHT22;6994;49.752;6.094;2023-07-29T12:36:42;29.50;92.80
13848;DHT22;6994;49.752;6.094;2023-07-29T12:39:19;28.80;93.90
13848;DHT22;6994;49.752;6.094;2023-07-29T12:41:45;28.10;94.90
13848;DHT22;6994;49.752;6.094;2023-07-29T12:44:12;27.40;96.10
13848;DHT22;6994;49.752;6.094;2023-07-29T12:46:39;26.90;97.00
13848;DHT22;6994;49.752;6.094;2023-07-29T12:49:07;26.50;98.00
13848;DHT22;6994;49.752;6.094;2023-07-29T12:51:35;26.60;99.80
13848;DHT22;6994;49.752;6.094;2023-07-29T12:54:03;27.20;98.50
13848;DHT22;6994;49.752;6.094;2023-07-29T12:56:31;27.50;98.70
13848;DHT22;6994;49.752;6.094;2023-07-29T12:58:58;27.40;98.70
13848;DHT22;6994;49.752;6.094;2023-07-29T13:01:28;27.80;98.30
13848;DHT22;6994;49.752;6.094;2023-07-29T13:03:55;28.40;96.40
13848;DHT22;6994;49.752;6.094;2023-07-29T13:06:22;29.60;94.40
13848;DHT22;6994;49.752;6.094;2023-07-29T13:08:49;30.10;94.40
13848;DHT22;6994;49.752;6.094;2023-07-29T13:11:17;30.60;93.60
13848;DHT22;6994;49.752;6.094;2023-07-29T13:13:44;31.30;92.60
13848;DHT22;6994;49.752;6.094;2023-07-29T13:16:11;32.50;90.80
13848;DHT22;6994;49.752;6.094;2023-07-29T13:18:38;32.80;90.20
13848;DHT22;6994;49.752;6.094;2023-07-29T13:21:06;31.50;91.10
13848;DHT22;6994;49.752;6.094;2023-07-29T13:23:33;31.50;90.90
13848;DHT22;6994;49.752;6.094;2023-07-29T13:26:01;31.20;91.60
13848;DHT22;6994;49.752;6.094;2023-07-29T13:28:28;31.70;90.30
13848;DHT22;6994;49.752;6.094;2023-07-29T13:30:56;31.60;90.20
13848;DHT22;6994;49.752;6.094;2023-07-29T13:33:23;31.30;90.30
13848;DHT22;6994;49.752;6.094;2023-07-29T13:35:50;30.70;90.80
13848;DHT22;6994;49.752;6.094;2023-07-29T13:38:17;30.30;91.30
13848;DHT22;6994;49.752;6.094;2023-07-29T13:40:44;29.40;92.20
13848;DHT22;6994;49.752;6.094;2023-07-29T13:43:12;29.80;93.70
13848;DHT22;6994;49.752;6.094;2023-07-29T13:45:39;30.10;93.10
13848;DHT22;6994;49.752;6.094;2023-07-29T13:48:06;30.60;91.90
13848;DHT22;6994;49.752;6.094;2023-07-29T13:50:33;30.50;91.80
13848;DHT22;6994;49.752;6.094;2023-07-29T13:53:01;30.50;91.70
13848;DHT22;6994;49.752;6.094;2023-07-29T13:55:29;30.80;92.50
13848;DHT22;6994;49.752;6.094;2023-07-29T13:57:56;30.70;92.40
13848;DHT22;6994;49.752;6.094;2023-07-29T14:00:24;31.10;92.00
13848;DHT22;6994;49.752;6.094;2023-07-29T14:02:51;31.10;91.10
13848;DHT22;6994;49.752;6.094;2023-07-29T14:05:18;31.20;91.50
13848;DHT22;6994;49.752;6.094;2023-07-29T14:07:45;31.00;91.30
13848;DHT22;6994;49.752;6.094;2023-07-29T14:10:12;30.70;90.80
13848;DHT22;6994;49.752;6.094;2023-07-29T14:12:40;30.70;90.30
13848;DHT22;6994;49.752;6.094;2023-07-29T14:15:07;30.00;91.80
13848;DHT22;6994;49.752;6.094;2023-07-29T14:17:34;29.30;92.70
13848;DHT22;6994;49.752;6.094;2023-07-29T14:20:02;28.00;93.60
13848;DHT22;6994;49.752;6.094;2023-07-29T14:22:29;27.90;93.60
13848;DHT22;6994;49.752;6.094;2023-07-29T14:24:57;27.50;94.20
13848;DHT22;6994;49.752;6.094;2023-07-29T14:27:24;27.20;94.40
13848;DHT22;6994;49.752;6.094;2023-07-29T14:29:51;27.40;94.70
13848;DHT22;6994;49.752;6.094;2023-07-29T14:32:18;27.20;95.10
13848;DHT22;6994;49.752;6.094;2023-07-29T14:34:46;27.10;95.60
13848;DHT22;6994;49.752;6.094;2023-07-29T14:37:13;27.40;95.80
13848;DHT22;6994;49.752;6.094;2023-07-29T14:39:40;27.90;95.10
13848;DHT22;6994;49.752;6.094;2023-07-29T14:42:07;28.50;95.70
13848;DHT22;6994;49.752;6.094;2023-07-29T14:44:35;29.70;94.00
13848;DHT22;6994;49.752;6.094;2023-07-29T14:47:02;29.70;94.00
13848;DHT22;6994;49.752;6.094;2023-07-29T14:49:30;30.10;93.60
13848;DHT22;6994;49.752;6.094;2023-07-29T14:51:57;30.40;93.60
13848;DHT22;6994;49.752;6.094;2023-07-29T14:54:24;30.40;92.90
13848;DHT22;6994;49.752;6.094;2023-07-29T14:56:51;30.40;93.00
13848;DHT22;6994;49.752;6.094;2023-07-29T14:59:18;31.00;91.40
13848;DHT22;6994;49.752;6.094;2023-07-29T15:01:46;31.10;92.20
13848;DHT22;6994;49.752;6.094;2023-07-29T15:04:13;31.20;92.20
13848;DHT22;6994;49.752;6.094;2023-07-29T15:06:40;31.50;91.50
13848;DHT22;6994;49.752;6.094;2023-07-29T15:09:07;31.30;91.30
13848;DHT22;6994;49.752;6.094;2023-07-29T15:11:34;31.20;92.20
13848;DHT22;6994;49.752;6.094;2023-07-29T15:14:02;30.90;91.40
13848;DHT22;6994;49.752;6.094;2023-07-29T15:16:32;31.00;91.40
13848;DHT22;6994;49.752;6.094;2023-07-29T15:18:59;31.00;91.30
13848;DHT22;6994;49.752;6.094;2023-07-29T15:21:27;31.20;91.00
13848;DHT22;6994;49.752;6.094;2023-07-29T15:23:54;30.60;90.80
13848;DHT22;6994;49.752;6.094;2023-07-29T15:26:21;29.90;91.70
13848;DHT22;6994;49.752;6.094;2023-07-29T15:28:48;29.30;93.60
13848;DHT22;6994;49.752;6.094;2023-07-29T15:31:15;29.20;94.70
13848;DHT22;6994;49.752;6.094;2023-07-29T15:33:43;29.10;94.20
13848;DHT22;6994;49.752;6.094;2023-07-29T15:36:11;28.70;94.30
13848;DHT22;6994;49.752;6.094;2023-07-29T15:38:39;28.30;94.60
13848;DHT22;6994;49.752;6.094;2023-07-29T15:41:07;27.90;95.30
13848;DHT22;6994;49.752;6.094;2023-07-29T15:43:34;27.50;96.10
13848;DHT22;6994;49.752;6.094;2023-07-29T15:46:02;27.20;96.70
13848;DHT22;6994;49.752;6.094;2023-07-29T15:48:30;27.10;96.60
13848;DHT22;6994;49.752;6.094;2023-07-29T15:50:57;27.00;97.40
13848;DHT22;6994;49.752;6.094;2023-07-29T15:53:24;27.10;97.80
13848;DHT22;6994;49.752;6.094;2023-07-29T15:55:51;27.10;97.30
13848;DHT22;6994;49.752;6.094;2023-07-29T15:58:18;27.00;97.50
13848;DHT22;6994;49.752;6.094;2023-07-29T16:00:46;26.80;97.60
13848;DHT22;6994;49.752;6.094;2023-07-29T16:03:13;26.80;98.10